Time;durP1;ratioP1;P1;durP2;ratioP2;P2;SDS_P1;SDS_P2;PMS_P1;PMS_P2;Temp;Humidity;BMP_temperature;BMP_pressure;BME280_temperature;BME280_humidity;BME280_pressure;Samples;Min_cycle;Max_cycle;Signal;HPM_P1;HPM_P2
2023/03/09 00:01:21;;;;;;;36.60;6.28;;;12.90;94.90;;;;;;5044717;28;20469;-55
2023/03/09 00:03:47;;;;;;;37.33;6.13;;;13.00;95.00;;;;;;5044780;28;20029;-55
2023/03/09 00:06:12;;;;;;;39.13;6.85;;;13.00;94.90;;;;;;5044541;28;20081;-55
2023/03/09 00:08:38;;;;;;;36.15;6.78;;;12.90;94.90;;;;;;5044556;28;20369;-55
2023/03/09 00:11:05;;;;;;;51.42;6.22;;;13.00;94.90;;;;;;5044401;28;20025;-55
2023/03/09 00:13:30;;;;;;;40.33;6.47;;;12.90;94.80;;;;;;5044284;28;20029;-55
2023/03/09 00:15:56;;;;;;;43.45;7.40;;;12.90;94.70;;;;;;5046171;28;20033;-55
2023/03/09 00:18:21;;;;;;;60.17;8.80;;;12.90;95.00;;;;;;5046791;28;20080;-55
2023/03/09 00:20:47;;;;;;;44.53;8.15;;;13.00;94.90;;;;;;5048566;28;20424;-55
2023/03/09 00:23:13;;;;;;;59.15;8.63;;;12.90;94.80;;;;;;5048362;28;20025;-55
2023/03/09 00:25:39;;;;;;;72.10;10.95;;;13.00;94.70;;;;;;5048339;28;20034;-55
2023/03/09 00:28:04;;;;;;;74.18;9.18;;;13.00;94.80;;;;;;5046837;28;20038;-54
2023/03/09 00:30:30;;;;;;;48.90;9.35;;;12.90;94.90;;;;;;5048496;28;20091;-55
2023/03/09 00:32:55;;;;;;;46.30;7.95;;;12.90;94.90;;;;;;5048541;28;20060;-55
2023/03/09 00:35:21;;;;;;;42.85;6.82;;;12.90;95.00;;;;;;5046848;28;20108;-55
2023/03/09 00:37:46;;;;;;;35.10;6.47;;;13.00;94.70;;;;;;5046813;28;20090;-54
2023/03/09 00:40:13;;;;;;;35.33;6.45;;;13.00;94.60;;;;;;5048125;28;20044;-54
2023/03/09 00:42:41;;;;;;;40.55;6.25;;;12.80;94.60;;;;;;5048067;28;20052;-55
2023/03/09 00:45:07;;;;;;;26.10;5.95;;;12.90;94.60;;;;;;5030510;28;20049;-55
2023/03/09 00:47:32;;;;;;;30.17;5.72;;;12.90;94.80;;;;;;5047933;28;20037;-54
2023/03/09 00:49:58;;;;;;;32.17;5.80;;;12.90;94.70;;;;;;5047612;28;20072;-55
2023/03/09 00:52:24;;;;;;;34.45;5.18;;;13.00;94.80;;;;;;5047741;28;20121;-55
2023/03/09 00:54:52;;;;;;;34.55;5.10;;;12.90;94.80;;;;;;5046193;28;20033;-55
2023/03/09 00:57:22;;;;;;;37.83;5.13;;;12.80;94.90;;;;;;5047966;28;20041;-55
2023/03/09 00:59:47;;;;;;;23.95;4.72;;;12.80;95.00;;;;;;5048016;28;20128;-55
2023/03/09 01:02:13;;;;;;;25.98;4.68;;;12.80;95.00;;;;;;5047863;28;20032;-55
2023/03/09 01:04:39;;;;;;;25.42;5.32;;;12.80;95.00;;;;;;5048047;28;20040;-55
2023/03/09 01:07:04;;;;;;;32.15;5.03;;;12.80;95.00;;;;;;5044181;28;20136;-55
2023/03/09 01:09:30;;;;;;;22.42;4.45;;;12.80;95.30;;;;;;5033863;28;20041;-55
2023/03/09 01:11:55;;;;;;;23.17;3.88;;;12.70;95.00;;;;;;5027916;28;20018;-55
2023/03/09 01:14:21;;;;;;;23.83;4.60;;;12.80;95.10;;;;;;5027763;28;20363;-54
2023/03/09 01:16:47;;;;;;;23.00;4.30;;;12.70;95.10;;;;;;5029290;28;20048;-54
2023/03/09 01:19:12;;;;;;;25.98;3.55;;;12.80;95.10;;;;;;5029208;28;20041;-55
2023/03/09 01:21:38;;;;;;;19.30;3.55;;;12.70;95.40;;;;;;5047524;28;20026;-55
2023/03/09 01:24:04;;;;;;;26.40;5.18;;;12.70;95.20;;;;;;5047199;28;20030;-55
2023/03/09 01:26:29;;;;;;;26.08;4.15;;;12.60;95.10;;;;;;5037518;28;20076;-55
2023/03/09 01:28:55;;;;;;;16.23;3.90;;;12.60;95.00;;;;;;5027491;28;20467;-55
2023/03/09 01:31:20;;;;;;;19.58;3.97;;;12.70;95.00;;;;;;5027251;28;20029;-55
2023/03/09 01:33:47;;;;;;;15.10;3.00;;;12.80;95.10;;;;;;5027323;28;20045;-55
2023/03/09 01:36:14;;;;;;;15.55;3.35;;;12.70;95.20;;;;;;5027009;28;20030;-55
2023/03/09 01:38:40;;;;;;;30.30;4.50;;;12.70;95.10;;;;;;5026856;28;20406;-55
2023/03/09 01:41:05;;;;;;;17.65;3.08;;;12.70;95.20;;;;;;5042200;28;20029;-55
2023/03/09 01:43:39;;;;;;;18.33;3.50;;;12.60;95.10;;;;;;5026928;28;20042;-55
2023/03/09 01:46:22;;;;;;;19.15;3.70;;;12.60;95.10;;;;;;5027402;28;20053;-54
2023/03/09 01:49:09;;;;;;;14.95;3.00;;;12.60;95.10;;;;;;5042389;28;20057;-55
2023/03/09 01:51:45;;;;;;;25.45;3.25;;;12.60;95.30;;;;;;5026948;28;20088;-55
2023/03/09 01:54:18;;;;;;;26.55;3.53;;;12.60;95.20;;;;;;5042026;28;20054;-55
2023/03/09 01:56:44;;;;;;;10.85;2.42;;;12.60;95.20;;;;;;5027079;28;20026;-55
2023/03/09 01:59:09;;;;;;;20.45;3.30;;;12.60;95.10;;;;;;5027134;28;20381;-55
2023/03/09 02:01:36;;;;;;;17.45;3.05;;;12.70;95.00;;;;;;5042596;28;20022;-55
2023/03/09 02:04:05;;;;;;;12.82;2.55;;;12.60;94.90;;;;;;5026859;28;20034;-55
2023/03/09 02:06:30;;;;;;;27.33;3.05;;;12.60;94.90;;;;;;5041787;28;20026;-55
2023/03/09 02:09:20;;;;;;;15.05;3.72;;;12.70;94.90;;;;;;5027083;28;20030;-55
2023/03/09 02:11:45;;;;;;;13.18;3.00;;;12.60;94.80;;;;;;5041809;28;20021;-55
2023/03/09 02:14:11;;;;;;;14.32;3.00;;;12.60;94.70;;;;;;5026966;28;20044;-55
2023/03/09 02:16:36;;;;;;;14.05;2.90;;;12.60;94.60;;;;;;5025324;28;20116;-55
2023/03/09 02:19:03;;;;;;;11.27;2.50;;;12.60;94.70;;;;;;5041653;28;20052;-55
2023/03/09 02:21:34;;;;;;;11.43;2.63;;;12.60;94.60;;;;;;5027022;28;20129;-55
2023/03/09 02:24:25;;;;;;;7.95;2.00;;;12.60;94.70;;;;;;5035651;28;20061;-55
2023/03/09 02:26:55;;;;;;;11.55;2.30;;;12.50;94.80;;;;;;5044788;28;20033;-54
2023/03/09 02:29:20;;;;;;;7.85;2.38;;;12.50;94.80;;;;;;5046327;28;20550;-54
2023/03/09 02:31:46;;;;;;;10.65;2.00;;;12.50;94.90;;;;;;5043687;28;20037;-55
2023/03/09 02:34:12;;;;;;;6.43;1.83;;;12.50;95.00;;;;;;5026619;28;20479;-55
2023/03/09 02:36:37;;;;;;;11.38;2.40;;;12.50;95.00;;;;;;5026378;28;20394;-55
2023/03/09 02:39:36;;;;;;;7.95;1.80;;;12.50;95.10;;;;;;5040364;28;20026;-55
2023/03/09 02:42:01;;;;;;;9.27;2.20;;;12.50;95.10;;;;;;5026768;28;20398;-55
2023/03/09 02:44:27;;;;;;;9.32;2.33;;;12.50;95.10;;;;;;5024923;28;20041;-55
2023/03/09 02:46:52;;;;;;;10.68;1.75;;;12.70;95.20;;;;;;5041583;28;20049;-55
2023/03/09 02:49:18;;;;;;;10.13;2.33;;;12.60;95.20;;;;;;5025825;28;20038;-54
2023/03/09 02:51:43;;;;;;;7.03;1.98;;;12.50;95.10;;;;;;5041216;28;20033;-55
2023/03/09 02:54:09;;;;;;;9.40;2.17;;;12.60;95.20;;;;;;5027365;28;20026;-55
2023/03/09 02:56:34;;;;;;;6.68;1.73;;;12.50;95.20;;;;;;5026621;28;20117;-55
2023/03/09 02:59:03;;;;;;;6.45;1.88;;;12.50;95.30;;;;;;5026330;28;20038;-55
2023/03/09 03:01:29;;;;;;;11.38;2.28;;;12.40;95.30;;;;;;5026127;28;20037;-55
2023/03/09 03:03:54;;;;;;;4.95;1.63;;;12.40;95.30;;;;;;5025978;28;20037;-55
2023/03/09 03:06:20;;;;;;;6.43;1.92;;;12.40;95.30;;;;;;5026164;28;20041;-55
2023/03/09 03:08:45;;;;;;;7.93;1.70;;;12.40;95.30;;;;;;5025939;28;20087;-55
2023/03/09 03:11:11;;;;;;;5.72;2.10;;;12.40;95.30;;;;;;5026314;28;20068;-55
2023/03/09 03:13:37;;;;;;;8.73;2.00;;;12.40;95.30;;;;;;5026228;28;20034;-55
2023/03/09 03:16:03;;;;;;;7.88;2.15;;;12.40;95.30;;;;;;5025875;28;20026;-55
2023/03/09 03:18:28;;;;;;;10.65;2.20;;;12.40;95.30;;;;;;5025855;28;20030;-55
2023/03/09 03:20:54;;;;;;;6.55;2.15;;;12.40;95.30;;;;;;5025867;28;20029;-55
2023/03/09 03:23:19;;;;;;;8.00;2.17;;;12.40;95.30;;;;;;5025698;28;20045;-55
2023/03/09 03:25:45;;;;;;;9.57;2.00;;;12.50;95.40;;;;;;5024495;28;20562;-55
2023/03/09 03:28:10;;;;;;;6.63;1.90;;;12.50;95.40;;;;;;5025639;28;20101;-55
2023/03/09 03:30:36;;;;;;;4.13;1.70;;;12.50;95.40;;;;;;5040789;28;20077;-55
2023/03/09 03:33:02;;;;;;;5.72;1.83;;;12.50;95.60;;;;;;5025621;28;20026;-55
2023/03/09 03:35:27;;;;;;;5.60;1.95;;;12.40;95.30;;;;;;5025679;28;20378;-55
2023/03/09 03:37:53;;;;;;;5.05;1.88;;;12.40;95.20;;;;;;5024393;28;20064;-55
2023/03/09 03:40:19;;;;;;;5.20;1.90;;;12.40;95.20;;;;;;5025548;28;20466;-55
2023/03/09 03:42:45;;;;;;;4.45;2.00;;;12.50;95.20;;;;;;5025372;28;20032;-55
2023/03/09 03:45:10;;;;;;;8.32;2.72;;;12.40;95.30;;;;;;5025661;28;20093;-55
2023/03/09 03:47:36;;;;;;;7.35;2.60;;;12.40;95.30;;;;;;5025219;28;20037;-55
2023/03/09 03:50:01;;;;;;;6.38;3.30;;;12.40;95.30;;;;;;5024851;28;20038;-55
2023/03/09 03:52:27;;;;;;;8.23;4.00;;;12.40;95.60;;;;;;5025499;28;20165;-55
2023/03/09 03:54:53;;;;;;;7.43;3.38;;;12.40;95.30;;;;;;5025107;28;20424;-55
2023/03/09 03:57:18;;;;;;;8.30;3.47;;;12.40;95.40;;;;;;5025359;28;20037;-55
2023/03/09 03:59:44;;;;;;;4.78;3.05;;;12.40;95.40;;;;;;5025344;28;20125;-55
2023/03/09 04:02:09;;;;;;;9.55;3.20;;;12.40;95.30;;;;;;5025007;28;20033;-55
2023/03/09 04:04:35;;;;;;;4.15;2.00;;;12.40;95.30;;;;;;5025324;28;20034;-55
2023/03/09 04:07:00;;;;;;;3.83;2.20;;;12.40;95.40;;;;;;5024728;28;20029;-54
2023/03/09 04:09:26;;;;;;;5.65;2.15;;;12.50;95.40;;;;;;5039412;28;20026;-55
2023/03/09 04:11:51;;;;;;;5.38;2.63;;;12.40;95.40;;;;;;5044488;28;20105;-55
2023/03/09 04:14:17;;;;;;;4.25;2.33;;;12.40;95.40;;;;;;5044512;28;20041;-55
2023/03/09 04:16:43;;;;;;;4.60;1.90;;;12.40;95.40;;;;;;5041556;28;20033;-55
2023/03/09 04:19:08;;;;;;;9.88;2.50;;;12.40;95.50;;;;;;5039827;28;20113;-55
2023/03/09 04:21:34;;;;;;;6.82;1.90;;;12.30;95.50;;;;;;5024852;28;20034;-55
2023/03/09 04:23:59;;;;;;;7.35;1.90;;;12.30;95.60;;;;;;5023655;28;20044;-55
2023/03/09 04:26:25;;;;;;;4.40;1.58;;;12.30;95.70;;;;;;5024458;28;20060;-55
2023/03/09 04:28:50;;;;;;;3.47;1.50;;;12.30;95.70;;;;;;5024545;28;20041;-55
2023/03/09 04:31:16;;;;;;;5.22;1.90;;;12.30;95.90;;;;;;5024708;28;20030;-54
2023/03/09 04:33:42;;;;;;;3.85;1.45;;;12.30;96.40;;;;;;5024435;28;20030;-55
2023/03/09 04:36:09;;;;;;;4.30;1.77;;;12.30;96.30;;;;;;5025035;28;20049;-54
2023/03/09 04:38:35;;;;;;;3.47;1.52;;;12.30;96.30;;;;;;5039472;28;20038;-55
2023/03/09 04:41:01;;;;;;;4.32;1.45;;;12.50;96.30;;;;;;5024470;28;20084;-55
2023/03/09 04:43:26;;;;;;;4.50;1.58;;;12.30;96.30;;;;;;5040034;28;20040;-55
2023/03/09 04:45:52;;;;;;;5.10;1.67;;;12.30;96.30;;;;;;5024201;28;20088;-55
2023/03/09 04:48:18;;;;;;;5.35;1.15;;;12.30;96.50;;;;;;5024510;28;20034;-54
2023/03/09 04:50:44;;;;;;;3.30;1.33;;;12.30;96.20;;;;;;5024442;28;20090;-54
2023/03/09 04:53:10;;;;;;;3.50;1.30;;;12.30;96.30;;;;;;5024450;28;20025;-54
2023/03/09 04:55:36;;;;;;;2.38;1.20;;;12.30;96.50;;;;;;5024667;28;20022;-55
2023/03/09 04:58:02;;;;;;;6.97;1.55;;;12.30;96.60;;;;;;5024375;28;20028;-54
2023/03/09 05:00:28;;;;;;;3.08;1.40;;;12.30;96.70;;;;;;5024559;28;20025;-54
2023/03/09 05:02:53;;;;;;;3.83;1.50;;;12.30;96.90;;;;;;5042952;28;20035;-54
2023/03/09 05:05:19;;;;;;;4.97;1.60;;;12.30;97.00;;;;;;5027834;28;20041;-54
2023/03/09 05:07:45;;;;;;;2.53;1.40;;;12.20;97.20;;;;;;5027799;28;20036;-54
2023/03/09 05:10:11;;;;;;;4.22;1.55;;;12.30;97.40;;;;;;5043247;28;20041;-54
2023/03/09 05:12:36;;;;;;;30.38;3.83;;;12.20;97.50;;;;;;5026308;28;20022;-54
2023/03/09 05:15:03;;;;;;;21.85;3.08;;;12.20;97.60;;;;;;5043307;28;20113;-55
2023/03/09 05:17:28;;;;;;;23.30;2.90;;;12.10;97.70;;;;;;5027846;28;20022;-55
2023/03/09 05:19:54;;;;;;;21.60;2.17;;;12.20;97.80;;;;;;5027716;28;20030;-55
2023/03/09 05:22:20;;;;;;;15.43;2.38;;;12.10;97.80;;;;;;5028135;28;20057;-54
2023/03/09 05:24:45;;;;;;;10.18;1.80;;;12.10;97.80;;;;;;5027306;28;20449;-54
2023/03/09 05:27:12;;;;;;;24.05;2.17;;;12.00;97.70;;;;;;5042742;28;20081;-55
2023/03/09 05:29:38;;;;;;;16.60;1.80;;;12.00;97.60;;;;;;5027932;28;20054;-55
2023/03/09 05:32:04;;;;;;;10.10;1.58;;;12.10;97.50;;;;;;5027548;28;20378;-54
2023/03/09 05:34:30;;;;;;;16.35;1.70;;;12.00;97.40;;;;;;5027920;28;20034;-54
2023/03/09 05:36:55;;;;;;;6.00;1.52;;;12.00;97.30;;;;;;5027385;28;20061;-55
2023/03/09 05:39:21;;;;;;;8.20;1.23;;;12.00;97.20;;;;;;5027093;28;20117;-55
2023/03/09 05:41:47;;;;;;;12.75;1.40;;;11.90;97.10;;;;;;5027393;28;20101;-54
2023/03/09 05:44:13;;;;;;;12.00;1.80;;;11.90;97.00;;;;;;5027082;28;20034;-55
2023/03/09 05:46:39;;;;;;;7.88;1.85;;;11.90;96.90;;;;;;5027126;28;20022;-55
2023/03/09 05:49:04;;;;;;;14.57;1.48;;;11.90;96.80;;;;;;5026846;28;20039;-55
2023/03/09 05:51:30;;;;;;;11.48;1.90;;;11.90;96.70;;;;;;5027065;28;20057;-55
2023/03/09 05:53:56;;;;;;;4.97;1.35;;;11.90;96.60;;;;;;5027432;28;20044;-54
2023/03/09 05:56:21;;;;;;;5.22;1.50;;;11.90;96.50;;;;;;5026762;28;20026;-54
2023/03/09 05:58:50;;;;;;;5.07;1.13;;;11.90;96.50;;;;;;5026996;28;20042;-55
2023/03/09 06:01:20;;;;;;;6.68;1.40;;;11.90;96.40;;;;;;5026924;28;20018;-54
2023/03/09 06:03:46;;;;;;;9.63;1.30;;;11.80;96.30;;;;;;5026666;28;20220;-55
2023/03/09 06:06:11;;;;;;;2.40;1.10;;;11.90;96.30;;;;;;5027044;28;20026;-54
2023/03/09 06:08:37;;;;;;;10.30;1.23;;;11.90;96.20;;;;;;5026714;28;20402;-55
2023/03/09 06:11:03;;;;;;;8.73;0.98;;;11.90;96.20;;;;;;5026778;28;20022;-55
2023/03/09 06:13:28;;;;;;;9.82;1.15;;;11.80;96.10;;;;;;5042054;28;20094;-55
2023/03/09 06:15:54;;;;;;;5.35;1.20;;;11.80;96.10;;;;;;5026495;28;20022;-55
2023/03/09 06:18:20;;;;;;;4.22;0.80;;;11.90;96.00;;;;;;5026441;28;20038;-55
2023/03/09 06:20:46;;;;;;;9.77;1.42;;;11.90;95.90;;;;;;5026636;28;20488;-55
2023/03/09 06:23:12;;;;;;;2.08;0.63;;;11.80;95.80;;;;;;5026285;28;20041;-55
2023/03/09 06:25:38;;;;;;;5.63;1.10;;;11.90;95.70;;;;;;5026678;28;20033;-55
2023/03/09 06:28:03;;;;;;;3.33;1.00;;;11.90;95.70;;;;;;5026174;28;20030;-55
2023/03/09 06:30:29;;;;;;;2.92;0.70;;;11.90;95.60;;;;;;5026478;28;20033;-55
2023/03/09 06:32:56;;;;;;;4.10;0.90;;;11.90;95.60;;;;;;5026558;28;20026;-55
2023/03/09 06:35:22;;;;;;;3.42;0.90;;;11.90;95.70;;;;;;5026251;28;20491;-55
2023/03/09 06:37:47;;;;;;;5.60;0.98;;;11.90;95.60;;;;;;5026377;28;20033;-55
2023/03/09 06:40:13;;;;;;;10.73;1.50;;;11.90;95.60;;;;;;5026153;28;20093;-55
2023/03/09 06:42:40;;;;;;;2.60;0.73;;;11.90;95.60;;;;;;5026086;28;20033;-55
2023/03/09 06:45:06;;;;;;;3.55;0.80;;;11.90;95.60;;;;;;5026534;28;20037;-55
2023/03/09 06:47:32;;;;;;;3.25;0.80;;;11.90;95.50;;;;;;5025792;28;20045;-55
2023/03/09 06:49:57;;;;;;;5.47;0.80;;;11.90;95.50;;;;;;5025786;28;20033;-55
2023/03/09 06:52:23;;;;;;;10.45;1.35;;;11.80;95.40;;;;;;5026404;28;20014;-55
2023/03/09 06:54:49;;;;;;;3.22;0.70;;;11.80;95.40;;;;;;5041534;28;20026;-55
2023/03/09 06:57:14;;;;;;;1.50;0.70;;;11.90;95.40;;;;;;5042832;28;20029;-55
2023/03/09 06:59:40;;;;;;;4.30;1.10;;;11.80;95.30;;;;;;5045608;28;20034;-55
2023/03/09 07:02:06;;;;;;;4.28;0.73;;;11.80;95.20;;;;;;5045672;28;20094;-55
2023/03/09 07:04:31;;;;;;;5.68;0.93;;;11.80;95.20;;;;;;5032583;28;20034;-55
2023/03/09 07:06:57;;;;;;;3.22;0.70;;;11.80;95.20;;;;;;5039410;28;20091;-55
2023/03/09 07:09:22;;;;;;;1.70;0.55;;;11.80;95.10;;;;;;5042519;28;20044;-55
2023/03/09 07:11:48;;;;;;;5.28;0.70;;;11.80;95.10;;;;;;5040022;28;20123;-55
2023/03/09 07:14:14;;;;;;;3.85;0.77;;;11.80;95.00;;;;;;5022479;28;20034;-55
2023/03/09 07:16:39;;;;;;;5.78;0.90;;;11.80;95.00;;;;;;5021127;28;20025;-55
2023/03/09 07:19:05;;;;;;;4.57;0.73;;;11.80;94.90;;;;;;5027262;28;20029;-55
2023/03/09 07:21:30;;;;;;;4.82;0.70;;;11.80;94.90;;;;;;5041830;28;20056;-55
2023/03/09 07:23:56;;;;;;;3.05;0.65;;;11.80;94.70;;;;;;5042783;28;20097;-55
2023/03/09 07:26:22;;;;;;;5.40;0.85;;;11.80;94.60;;;;;;5043353;28;20030;-55
2023/03/09 07:28:47;;;;;;;6.85;0.90;;;11.80;94.60;;;;;;5043324;28;20036;-55
2023/03/09 07:31:13;;;;;;;5.07;1.20;;;11.90;94.50;;;;;;5043913;28;20485;-55
2023/03/09 07:33:39;;;;;;;2.38;0.80;;;11.70;94.40;;;;;;5045106;28;20117;-55
2023/03/09 07:36:05;;;;;;;9.68;1.00;;;11.70;94.40;;;;;;5031624;28;20053;-54
2023/03/09 07:38:31;;;;;;;9.43;1.33;;;11.70;94.50;;;;;;5025152;28;20030;-55
2023/03/09 07:40:58;;;;;;;10.15;0.77;;;11.70;94.40;;;;;;5025086;28;20033;-54
2023/03/09 07:43:23;;;;;;;8.02;0.95;;;11.70;94.40;;;;;;5025082;28;20041;-55
2023/03/09 07:45:49;;;;;;;6.43;0.82;;;11.70;94.50;;;;;;5025147;28;20030;-55
2023/03/09 07:48:15;;;;;;;8.95;1.05;;;11.70;94.50;;;;;;5025343;28;20045;-54
2023/03/09 07:50:41;;;;;;;5.10;0.80;;;11.60;94.50;;;;;;5025217;28;20037;-55
2023/03/09 07:53:07;;;;;;;5.82;0.98;;;11.70;94.80;;;;;;5025280;28;20018;-54
2023/03/09 07:55:34;;;;;;;6.80;1.23;;;11.70;94.50;;;;;;5025431;28;20033;-55
2023/03/09 07:58:01;;;;;;;2.67;0.77;;;11.70;94.40;;;;;;5024812;28;20026;-55
2023/03/09 08:00:28;;;;;;;10.23;1.67;;;11.70;94.40;;;;;;5025277;28;20026;-55
2023/03/09 08:02:53;;;;;;;10.55;2.28;;;11.70;94.40;;;;;;5024986;28;20033;-55
2023/03/09 08:05:19;;;;;;;6.72;1.02;;;11.70;94.40;;;;;;5024456;28;20037;-55
2023/03/09 08:07:46;;;;;;;6.93;1.40;;;11.90;94.40;;;;;;5045181;28;20038;-55
2023/03/09 08:10:13;;;;;;;9.68;2.13;;;11.70;94.30;;;;;;5060860;28;20017;-55
2023/03/09 08:12:39;;;;;;;9.77;1.60;;;11.70;94.30;;;;;;5048787;28;20096;-55
2023/03/09 08:15:05;;;;;;;5.20;1.40;;;11.70;94.20;;;;;;5055213;28;20492;-55
2023/03/09 08:17:31;;;;;;;8.65;1.58;;;11.70;94.20;;;;;;5056002;28;20029;-55
2023/03/09 08:19:57;;;;;;;18.83;2.60;;;11.70;94.20;;;;;;5049262;28;20037;-55
2023/03/09 08:22:22;;;;;;;24.40;2.33;;;11.70;94.20;;;;;;5060335;28;20033;-55
2023/03/09 08:24:48;;;;;;;9.15;1.50;;;11.80;94.30;;;;;;5049921;28;20124;-55
2023/03/09 08:27:14;;;;;;;17.25;1.75;;;11.90;94.10;;;;;;5053636;28;20025;-55
2023/03/09 08:29:39;;;;;;;16.33;1.73;;;11.70;94.00;;;;;;5056912;28;20049;-55
2023/03/09 08:32:06;;;;;;;13.20;2.22;;;11.70;94.00;;;;;;5047942;28;20481;-55
2023/03/09 08:34:32;;;;;;;35.85;2.60;;;11.70;93.90;;;;;;5052071;28;20033;-55
2023/03/09 08:36:57;;;;;;;28.58;3.55;;;11.70;93.90;;;;;;5046378;28;20037;-55
2023/03/09 08:39:23;;;;;;;18.42;2.60;;;11.70;93.90;;;;;;5048443;28;20083;-55
2023/03/09 08:41:48;;;;;;;23.02;3.42;;;11.70;93.80;;;;;;5048833;28;20052;-55
2023/03/09 08:44:14;;;;;;;25.20;3.40;;;11.70;93.80;;;;;;5060145;28;20056;-55
2023/03/09 08:46:39;;;;;;;20.75;2.88;;;11.70;93.70;;;;;;5047871;28;20052;-55
2023/03/09 08:49:05;;;;;;;21.88;3.10;;;11.80;93.70;;;;;;5045969;28;20060;-55
2023/03/09 08:51:31;;;;;;;31.75;2.70;;;11.70;93.50;;;;;;5055743;28;20021;-55
2023/03/09 08:53:56;;;;;;;14.40;2.53;;;11.70;93.40;;;;;;5047098;28;20021;-55
2023/03/09 08:56:22;;;;;;;19.52;3.05;;;11.80;93.40;;;;;;5041445;28;20049;-55
2023/03/09 08:58:47;;;;;;;27.00;3.60;;;11.80;93.30;;;;;;5058275;28;20296;-55
2023/03/09 09:01:13;;;;;;;22.73;4.03;;;11.80;93.40;;;;;;5048668;28;20026;-55
2023/03/09 09:03:39;;;;;;;25.92;3.75;;;11.80;93.30;;;;;;5062593;28;20056;-55
2023/03/09 09:06:09;;;;;;;20.70;2.42;;;11.90;93.30;;;;;;5047415;28;20075;-55
2023/03/09 09:08:34;;;;;;;17.75;2.75;;;11.80;93.10;;;;;;5042305;28;20025;-55
2023/03/09 09:11:14;;;;;;;12.13;2.42;;;11.80;93.00;;;;;;5047658;28;20017;-55
2023/03/09 09:13:40;;;;;;;16.30;3.05;;;11.80;92.90;;;;;;5047297;28;20033;-55
2023/03/09 09:16:06;;;;;;;30.45;4.20;;;11.80;92.90;;;;;;5045049;28;20040;-55
2023/03/09 09:18:33;;;;;;;37.20;4.20;;;11.80;92.90;;;;;;5062199;28;20029;-55
2023/03/09 09:20:59;;;;;;;29.30;3.72;;;11.80;92.90;;;;;;5042576;28;20027;-55
2023/03/09 09:23:24;;;;;;;25.17;3.67;;;11.90;92.90;;;;;;5042284;28;20038;-55
2023/03/09 09:25:55;;;;;;;27.75;3.90;;;11.90;92.80;;;;;;5046233;28;20386;-55
2023/03/09 09:28:20;;;;;;;20.73;3.38;;;11.90;92.80;;;;;;5042920;28;20032;-55
2023/03/09 09:30:53;;;;;;;26.27;3.80;;;12.00;92.80;;;;;;5044519;28;20041;-55
2023/03/09 09:33:18;;;;;;;20.05;4.05;;;12.00;92.70;;;;;;5053267;28;20025;-55
2023/03/09 09:35:54;;;;;;;24.27;4.07;;;11.90;92.50;;;;;;5048388;28;20044;-55
2023/03/09 09:38:20;;;;;;;21.17;3.00;;;11.90;92.50;;;;;;5057464;28;20044;-55
2023/03/09 09:40:46;;;;;;;19.30;3.08;;;11.90;92.50;;;;;;5058822;28;20385;-55
2023/03/09 09:43:11;;;;;;;25.60;3.75;;;12.00;92.50;;;;;;5049736;28;20037;-55
2023/03/09 09:45:37;;;;;;;21.30;3.65;;;12.00;92.40;;;;;;5059266;28;20477;-55
2023/03/09 09:48:05;;;;;;;16.95;2.97;;;12.10;92.40;;;;;;5051920;28;20104;-55
2023/03/09 09:51:04;;;;;;;22.88;3.20;;;12.00;92.30;;;;;;5050496;28;20021;-54
2023/03/09 09:53:51;;;;;;;22.42;3.92;;;12.00;92.20;;;;;;5042247;28;20047;-55
2023/03/09 09:56:19;;;;;;;23.23;4.18;;;12.10;92.20;;;;;;5054399;28;20025;-55
2023/03/09 09:58:44;;;;;;;32.50;4.85;;;12.10;92.40;;;;;;5057954;28;20029;-55
2023/03/09 10:01:41;;;;;;;33.60;4.28;;;12.10;92.30;;;;;;5049746;28;20025;-55
2023/03/09 10:04:13;;;;;;;;;;;12.10;92.40;;;;;;5056439;28;20072;-54
2023/03/09 10:06:38;;;;;;;25.75;3.38;;;12.10;92.40;;;;;;5057990;28;19920;-55
2023/03/09 10:09:11;;;;;;;23.10;3.42;;;12.30;92.30;;;;;;5048215;28;20029;-55
2023/03/09 10:11:54;;;;;;;22.00;3.92;;;12.20;92.20;;;;;;5045311;28;20029;-55
2023/03/09 10:14:25;;;;;;;18.08;3.28;;;12.30;92.20;;;;;;5026827;28;20030;-55
2023/03/09 10:17:13;;;;;;;17.02;3.00;;;12.20;92.20;;;;;;5026081;28;20464;-55
2023/03/09 10:19:40;;;;;;;20.33;3.58;;;12.30;92.10;;;;;;5025374;28;20034;-55
2023/03/09 10:22:10;;;;;;;55.05;5.65;;;12.30;92.20;;;;;;5026335;28;20029;-55
2023/03/09 10:24:39;;;;;;;53.45;5.65;;;12.30;92.20;;;;;;5025273;28;20406;-55
2023/03/09 10:27:14;;;;;;;48.85;6.78;;;12.40;92.20;;;;;;5027356;28;20029;-55
2023/03/09 10:29:39;;;;;;;38.50;5.32;;;12.40;92.30;;;;;;5047081;28;20045;-55
2023/03/09 10:32:11;;;;;;;62.63;7.20;;;12.40;92.20;;;;;;5048382;28;20453;-55
2023/03/09 10:34:50;;;;;;;55.78;5.38;;;12.40;92.20;;;;;;5041141;28;20025;-55
2023/03/09 10:37:17;;;;;;;44.17;5.10;;;12.50;92.20;;;;;;5057638;28;20028;-55
2023/03/09 10:39:46;;;;;;;37.10;5.22;;;12.50;91.80;;;;;;5051069;28;20033;-55
2023/03/09 10:42:25;;;;;;;42.97;6.05;;;12.50;91.70;;;;;;5044403;28;20025;-55
2023/03/09 10:45:23;;;;;;;29.25;4.15;;;12.60;91.70;;;;;;5034549;28;20035;-55
2023/03/09 10:48:02;;;;;;;51.40;6.97;;;12.50;91.40;;;;;;5052781;28;20117;-55
2023/03/09 10:50:33;;;;;;;60.42;6.20;;;12.60;91.50;;;;;;5053648;28;20041;-55
2023/03/09 10:53:20;;;;;;;45.85;7.45;;;12.60;91.50;;;;;;5046006;28;20052;-55
2023/03/09 10:55:46;;;;;;;33.47;6.45;;;12.60;91.30;;;;;;5031913;28;20017;-55
2023/03/09 10:58:21;;;;;;;26.92;3.45;;;12.70;91.20;;;;;;5042941;28;20497;-55
2023/03/09 11:01:16;;;;;;;23.15;3.83;;;12.70;90.90;;;;;;5029634;28;20060;-55
2023/03/09 11:03:42;;;;;;;49.03;4.93;;;12.70;90.50;;;;;;5038400;28;20064;-55
2023/03/09 11:06:15;;;;;;;34.10;4.70;;;12.80;90.30;;;;;;5034153;28;20044;-55
2023/03/09 11:08:41;;;;;;;37.90;6.15;;;12.70;90.20;;;;;;5032364;28;20025;-55
2023/03/09 11:11:24;;;;;;;70.97;7.75;;;12.90;90.20;;;;;;5031818;28;20080;-56
2023/03/09 11:13:50;;;;;;;73.60;8.27;;;12.90;90.20;;;;;;5042223;28;20034;-55
2023/03/09 11:16:26;;;;;;;106.40;10.77;;;13.00;90.30;;;;;;5033397;28;20044;-55
2023/03/09 11:19:10;;;;;;;;;;;13.00;90.40;;;;;;5045942;28;20052;-56
2023/03/09 11:21:35;;;;;;;65.40;6.60;;;13.00;90.40;;;;;;5039243;28;19936;-56
2023/03/09 11:24:02;;;;;;;24.48;4.05;;;13.10;90.20;;;;;;5040836;28;20041;-55
2023/03/09 11:26:34;;;;;;;57.40;5.88;;;13.10;89.60;;;;;;5035836;28;20044;-55
2023/03/09 11:29:36;;;;;;;34.97;5.07;;;13.10;89.20;;;;;;5034064;28;20026;-55
2023/03/09 11:32:02;;;;;;;42.60;5.90;;;13.10;88.60;;;;;;5035146;28;20425;-55
2023/03/09 11:34:35;;;;;;;52.22;5.47;;;13.10;88.20;;;;;;5034703;28;20056;-55
2023/03/09 11:37:18;;;;;;;77.22;7.75;;;13.20;88.40;;;;;;5036301;28;20029;-55
2023/03/09 11:39:55;;;;;;;55.85;6.97;;;13.30;89.50;;;;;;5041572;28;20029;-55
2023/03/09 11:42:31;;;;;;;29.98;4.40;;;13.30;88.80;;;;;;5036451;28;20064;-56
2023/03/09 11:44:56;;;;;;;54.55;6.95;;;13.30;87.60;;;;;;5047282;28;20581;-55
2023/03/09 11:47:30;;;;;;;67.60;7.47;;;13.40;87.50;;;;;;5045452;28;20034;-56
2023/03/09 11:49:58;;;;;;;69.03;8.13;;;13.40;87.50;;;;;;5044214;28;20038;-55
2023/03/09 11:52:30;;;;;;;66.07;8.93;;;13.40;88.10;;;;;;5040157;28;20034;-56
2023/03/09 11:54:56;;;;;;;75.40;8.30;;;13.50;88.20;;;;;;5043743;28;20017;-56
2023/03/09 11:57:22;;;;;;;80.60;9.27;;;13.50;88.10;;;;;;5046469;28;20081;-55
2023/03/09 12:00:05;;;;;;;90.82;9.02;;;13.60;88.20;;;;;;5052028;28;20060;-56
2023/03/09 12:02:35;;;;;;;93.95;11.18;;;13.50;87.80;;;;;;5042559;28;20044;-56
2023/03/09 12:05:00;;;;;;;87.28;9.77;;;13.60;88.10;;;;;;5054379;28;20047;-56
2023/03/09 12:07:41;;;;;;;80.38;8.40;;;13.60;88.10;;;;;;5039113;28;20068;-56
2023/03/09 12:10:31;;;;;;;111.15;11.00;;;13.60;87.80;;;;;;5044332;28;20088;-56
2023/03/09 12:13:01;;;;;;;110.72;10.75;;;13.60;87.40;;;;;;5054514;28;20114;-56
2023/03/09 12:15:50;;;;;;;85.35;10.57;;;13.70;87.40;;;;;;5047855;28;20029;-57
2023/03/09 12:18:24;;;;;;;110.45;12.00;;;13.70;87.30;;;;;;5042157;28;20043;-56
2023/03/09 12:20:57;;;;;;;114.80;11.30;;;13.70;87.50;;;;;;5017400;28;20029;-56
2023/03/09 12:23:34;;;;;;;92.30;11.13;;;13.70;87.50;;;;;;5046685;28;20036;-56
2023/03/09 12:26:00;;;;;;;125.53;12.68;;;13.70;87.30;;;;;;5048337;28;20042;-56
2023/03/09 12:28:26;;;;;;;114.50;11.38;;;13.90;87.30;;;;;;5054705;28;20053;-55
2023/03/09 12:30:55;;;;;;;87.75;9.90;;;13.90;87.30;;;;;;5040082;28;20021;-56
2023/03/09 12:33:43;;;;;;;123.18;14.07;;;13.90;87.10;;;;;;5055385;28;20021;-56
2023/03/09 12:36:27;;;;;;;143.05;14.43;;;13.90;87.00;;;;;;5063790;28;20036;-56
2023/03/09 12:39:33;;;;;;;131.77;15.60;;;14.00;87.30;;;;;;5052119;28;20032;-56
2023/03/09 12:42:06;;;;;;;135.00;13.35;;;14.00;87.50;;;;;;5051663;28;20416;-56
2023/03/09 12:44:46;;;;;;;77.43;9.57;;;14.00;87.40;;;;;;5056769;28;20034;-56
2023/03/09 12:47:30;;;;;;;78.93;9.82;;;14.20;86.70;;;;;;5033707;28;20018;-56